sensor_id;sensor_type;location;lat;lon;timestamp;pressure;altitude;pressure_sealevel;temperature;humidity
17521;BME280;8878;-33.370;-70.552;2023-04-06T00:01:39;92079.03;;;24.40;31.74
17521;BME280;8878;-33.370;-70.552;2023-04-06T00:04:08;92075.06;;;24.34;34.18
17521;BME280;8878;-33.370;-70.552;2023-04-06T00:06:45;92085.00;;;24.30;33.68
17521;BME280;8878;-33.370;-70.552;2023-04-06T00:09:15;92082.28;;;24.30;33.91
17521;BME280;8878;-33.370;-70.552;2023-04-06T00:11:45;92089.25;;;24.15;34.97
17521;BME280;8878;-33.370;-70.552;2023-04-06T00:14:14;92080.84;;;24.01;34.29
17521;BME280;8878;-33.370;-70.552;2023-04-06T00:16:46;92083.09;;;23.99;34.54
17521;BME280;8878;-33.370;-70.552;2023-04-06T00:19:16;92085.97;;;23.90;35.57
17521;BME280;8878;-33.370;-70.552;2023-04-06T00:21:45;92080.41;;;23.83;35.00
17521;BME280;8878;-33.370;-70.552;2023-04-06T00:24:15;92084.03;;;23.59;36.23
17521;BME280;8878;-33.370;-70.552;2023-04-06T00:26:44;92089.19;;;23.49;36.45
17521;BME280;8878;-33.370;-70.552;2023-04-06T00:29:14;92089.81;;;23.46;35.55
17521;BME280;8878;-33.370;-70.552;2023-04-06T00:31:46;92099.63;;;23.38;36.80
17521;BME280;8878;-33.370;-70.552;2023-04-06T00:34:16;92103.19;;;23.26;37.25
17521;BME280;8878;-33.370;-70.552;2023-04-06T00:36:45;92097.06;;;23.14;37.45
17521;BME280;8878;-33.370;-70.552;2023-04-06T00:39:14;92101.75;;;23.01;37.88
17521;BME280;8878;-33.370;-70.552;2023-04-06T00:41:46;92109.94;;;22.92;37.57
17521;BME280;8878;-33.370;-70.552;2023-04-06T00:44:18;92114.22;;;22.93;37.67
17521;BME280;8878;-33.370;-70.552;2023-04-06T00:46:49;92115.38;;;22.80;37.82
17521;BME280;8878;-33.370;-70.552;2023-04-06T00:49:19;92114.34;;;22.85;37.19
17521;BME280;8878;-33.370;-70.552;2023-04-06T00:51:48;92114.81;;;22.75;38.02
17521;BME280;8878;-33.370;-70.552;2023-04-06T00:54:18;92113.78;;;22.67;38.17
17521;BME280;8878;-33.370;-70.552;2023-04-06T00:56:47;92116.53;;;22.55;37.38
17521;BME280;8878;-33.370;-70.552;2023-04-06T00:59:17;92107.94;;;22.37;36.08
17521;BME280;8878;-33.370;-70.552;2023-04-06T01:01:48;92093.16;;;22.43;37.90
17521;BME280;8878;-33.370;-70.552;2023-04-06T01:04:18;92099.53;;;22.51;36.99
17521;BME280;8878;-33.370;-70.552;2023-04-06T01:06:49;92098.94;;;22.45;37.80
17521;BME280;8878;-33.370;-70.552;2023-04-06T01:09:19;92090.47;;;22.31;36.70
17521;BME280;8878;-33.370;-70.552;2023-04-06T01:11:49;92098.03;;;22.01;36.39
17521;BME280;8878;-33.370;-70.552;2023-04-06T01:14:18;92092.97;;;22.00;35.92
17521;BME280;8878;-33.370;-70.552;2023-04-06T01:16:50;92091.63;;;22.06;36.04
17521;BME280;8878;-33.370;-70.552;2023-04-06T01:19:21;92092.09;;;22.08;36.30
17521;BME280;8878;-33.370;-70.552;2023-04-06T01:21:51;92098.78;;;22.26;35.45
17521;BME280;8878;-33.370;-70.552;2023-04-06T01:24:24;92097.75;;;22.43;36.05
17521;BME280;8878;-33.370;-70.552;2023-04-06T01:30:00;92102.00;;;22.32;35.46
17521;BME280;8878;-33.370;-70.552;2023-04-06T01:32:30;92091.84;;;22.13;36.05
17521;BME280;8878;-33.370;-70.552;2023-04-06T01:35:00;92077.31;;;22.02;35.60
17521;BME280;8878;-33.370;-70.552;2023-04-06T01:37:29;92082.00;;;21.93;36.10
17521;BME280;8878;-33.370;-70.552;2023-04-06T01:40:01;92086.59;;;21.80;35.84
17521;BME280;8878;-33.370;-70.552;2023-04-06T01:42:31;92073.03;;;21.88;35.66
17521;BME280;8878;-33.370;-70.552;2023-04-06T01:45:00;92068.09;;;21.91;35.55
17521;BME280;8878;-33.370;-70.552;2023-04-06T01:47:30;92064.75;;;21.69;35.53
17521;BME280;8878;-33.370;-70.552;2023-04-06T01:49:59;92062.94;;;21.61;35.64
17521;BME280;8878;-33.370;-70.552;2023-04-06T01:52:29;92061.63;;;21.92;35.22
17521;BME280;8878;-33.370;-70.552;2023-04-06T01:55:01;92070.91;;;22.18;35.67
17521;BME280;8878;-33.370;-70.552;2023-04-06T01:57:30;92063.84;;;22.26;36.76
17521;BME280;8878;-33.370;-70.552;2023-04-06T02:00:00;92067.44;;;22.30;36.23
17521;BME280;8878;-33.370;-70.552;2023-04-06T02:02:30;92065.41;;;22.27;36.28
17521;BME280;8878;-33.370;-70.552;2023-04-06T02:05:00;92064.31;;;22.16;36.50
17521;BME280;8878;-33.370;-70.552;2023-04-06T02:07:29;92059.06;;;22.07;36.27
17521;BME280;8878;-33.370;-70.552;2023-04-06T02:10:02;92056.47;;;21.74;36.48
17521;BME280;8878;-33.370;-70.552;2023-04-06T02:12:33;92055.34;;;21.63;37.04
17521;BME280;8878;-33.370;-70.552;2023-04-06T02:15:02;92046.41;;;21.83;37.99
17521;BME280;8878;-33.370;-70.552;2023-04-06T02:17:33;92050.53;;;21.93;38.39
17521;BME280;8878;-33.370;-70.552;2023-04-06T02:20:03;92066.00;;;21.96;37.78
17521;BME280;8878;-33.370;-70.552;2023-04-06T02:22:33;92070.56;;;21.96;37.70
17521;BME280;8878;-33.370;-70.552;2023-04-06T02:25:08;92071.16;;;22.01;37.59
17521;BME280;8878;-33.370;-70.552;2023-04-06T02:27:38;92070.13;;;21.57;35.64
17521;BME280;8878;-33.370;-70.552;2023-04-06T02:30:08;92070.22;;;21.48;34.74
17521;BME280;8878;-33.370;-70.552;2023-04-06T02:32:38;92069.47;;;21.72;33.87
17521;BME280;8878;-33.370;-70.552;2023-04-06T02:35:08;92063.97;;;21.69;34.02
17521;BME280;8878;-33.370;-70.552;2023-04-06T02:37:37;92071.47;;;21.51;33.66
17521;BME280;8878;-33.370;-70.552;2023-04-06T02:40:10;92075.16;;;21.59;34.21
17521;BME280;8878;-33.370;-70.552;2023-04-06T02:42:39;92075.25;;;21.62;33.42
17521;BME280;8878;-33.370;-70.552;2023-04-06T02:45:09;92082.56;;;21.74;33.66
17521;BME280;8878;-33.370;-70.552;2023-04-06T02:47:39;92073.16;;;21.80;34.21
17521;BME280;8878;-33.370;-70.552;2023-04-06T02:50:09;92084.66;;;21.93;34.77
17521;BME280;8878;-33.370;-70.552;2023-04-06T02:52:39;92077.31;;;22.02;37.15
17521;BME280;8878;-33.370;-70.552;2023-04-06T02:55:11;92094.56;;;22.01;38.10
17521;BME280;8878;-33.370;-70.552;2023-04-06T02:57:41;92089.19;;;22.01;37.61
17521;BME280;8878;-33.370;-70.552;2023-04-06T03:00:15;92085.00;;;21.91;37.65
17521;BME280;8878;-33.370;-70.552;2023-04-06T03:02:48;92085.47;;;21.93;37.61
17521;BME280;8878;-33.370;-70.552;2023-04-06T03:05:18;92090.28;;;21.87;38.08
17521;BME280;8878;-33.370;-70.552;2023-04-06T03:07:48;92098.78;;;21.77;37.46
17521;BME280;8878;-33.370;-70.552;2023-04-06T03:10:19;92094.75;;;21.71;38.52
17521;BME280;8878;-33.370;-70.552;2023-04-06T03:12:49;92102.44;;;21.61;38.62
17521;BME280;8878;-33.370;-70.552;2023-04-06T03:15:20;92107.47;;;21.50;37.97
17521;BME280;8878;-33.370;-70.552;2023-04-06T03:17:50;92111.50;;;21.44;38.06
17521;BME280;8878;-33.370;-70.552;2023-04-06T03:20:19;92107.00;;;21.36;38.60
17521;BME280;8878;-33.370;-70.552;2023-04-06T03:22:49;92110.56;;;21.28;38.58
17521;BME280;8878;-33.370;-70.552;2023-04-06T03:28:27;92107.31;;;21.22;37.72
17521;BME280;8878;-33.370;-70.552;2023-04-06T03:30:57;92105.50;;;21.26;38.54
17521;BME280;8878;-33.370;-70.552;2023-04-06T03:33:26;92100.72;;;21.32;38.42
17521;BME280;8878;-33.370;-70.552;2023-04-06T03:35:57;92106.06;;;21.20;38.30
17521;BME280;8878;-33.370;-70.552;2023-04-06T03:38:26;92101.97;;;21.01;37.73
17521;BME280;8878;-33.370;-70.552;2023-04-06T03:40:56;92088.41;;;20.98;37.79
17521;BME280;8878;-33.370;-70.552;2023-04-06T03:43:27;92094.47;;;21.07;37.90
17521;BME280;8878;-33.370;-70.552;2023-04-06T03:45:57;92099.69;;;20.91;38.52
17521;BME280;8878;-33.370;-70.552;2023-04-06T03:48:26;92099.34;;;20.93;37.98
17521;BME280;8878;-33.370;-70.552;2023-04-06T03:50:56;92101.41;;;20.75;38.18
17521;BME280;8878;-33.370;-70.552;2023-04-06T03:53:26;92097.56;;;20.97;37.84
17521;BME280;8878;-33.370;-70.552;2023-04-06T03:55:56;92097.91;;;20.95;38.37
17521;BME280;8878;-33.370;-70.552;2023-04-06T03:58:27;92100.22;;;21.18;37.23
17521;BME280;8878;-33.370;-70.552;2023-04-06T04:00:57;92097.09;;;21.16;37.68
17521;BME280;8878;-33.370;-70.552;2023-04-06T04:03:27;92082.38;;;21.34;37.85
17521;BME280;8878;-33.370;-70.552;2023-04-06T04:05:57;92077.94;;;21.38;36.92
17521;BME280;8878;-33.370;-70.552;2023-04-06T04:08:26;92081.06;;;21.40;36.98
17521;BME280;8878;-33.370;-70.552;2023-04-06T04:10:56;92074.34;;;21.46;36.50
17521;BME280;8878;-33.370;-70.552;2023-04-06T04:13:27;92065.31;;;21.51;36.14
17521;BME280;8878;-33.370;-70.552;2023-04-06T04:15:57;92067.75;;;21.43;36.33
17521;BME280;8878;-33.370;-70.552;2023-04-06T04:18:27;92069.75;;;21.34;36.55
17521;BME280;8878;-33.370;-70.552;2023-04-06T04:20:56;92066.38;;;21.25;36.90
17521;BME280;8878;-33.370;-70.552;2023-04-06T04:23:26;92064.84;;;21.03;37.71
17521;BME280;8878;-33.370;-70.552;2023-04-06T04:25:55;92067.28;;;21.29;37.34
17521;BME280;8878;-33.370;-70.552;2023-04-06T04:28:27;92057.25;;;21.38;37.75
17521;BME280;8878;-33.370;-70.552;2023-04-06T04:30:58;92073.13;;;21.43;37.70
17521;BME280;8878;-33.370;-70.552;2023-04-06T04:33:27;92065.59;;;21.25;36.22
17521;BME280;8878;-33.370;-70.552;2023-04-06T04:35:57;92069.53;;;21.39;33.79
17521;BME280;8878;-33.370;-70.552;2023-04-06T04:38:26;92066.53;;;21.41;32.79
17521;BME280;8878;-33.370;-70.552;2023-04-06T04:40:56;92080.19;;;21.60;32.40
17521;BME280;8878;-33.370;-70.552;2023-04-06T04:43:27;92075.63;;;21.73;35.49
17521;BME280;8878;-33.370;-70.552;2023-04-06T04:45:57;92087.22;;;21.07;34.22
17521;BME280;8878;-33.370;-70.552;2023-04-06T04:48:27;92089.75;;;21.25;33.71
17521;BME280;8878;-33.370;-70.552;2023-04-06T04:50:56;92097.72;;;21.13;32.87
17521;BME280;8878;-33.370;-70.552;2023-04-06T04:53:26;92096.16;;;21.44;33.74
17521;BME280;8878;-33.370;-70.552;2023-04-06T04:55:55;92095.06;;;21.45;32.36
17521;BME280;8878;-33.370;-70.552;2023-04-06T04:58:27;92098.16;;;21.35;33.28
17521;BME280;8878;-33.370;-70.552;2023-04-06T05:00:57;92097.16;;;21.07;32.92
17521;BME280;8878;-33.370;-70.552;2023-04-06T05:03:27;92104.19;;;20.99;32.84
17521;BME280;8878;-33.370;-70.552;2023-04-06T05:05:56;92098.50;;;21.01;32.46
17521;BME280;8878;-33.370;-70.552;2023-04-06T05:08:26;92090.16;;;21.15;33.01
17521;BME280;8878;-33.370;-70.552;2023-04-06T05:10:56;92091.22;;;21.01;33.65
17521;BME280;8878;-33.370;-70.552;2023-04-06T05:13:29;92100.63;;;21.07;33.61
17521;BME280;8878;-33.370;-70.552;2023-04-06T05:15:58;92090.28;;;21.18;36.64
17521;BME280;8878;-33.370;-70.552;2023-04-06T05:18:28;92102.44;;;21.16;36.46
17521;BME280;8878;-33.370;-70.552;2023-04-06T05:20:58;92098.28;;;21.06;35.73
17521;BME280;8878;-33.370;-70.552;2023-04-06T05:23:28;92093.41;;;20.87;37.15
17521;BME280;8878;-33.370;-70.552;2023-04-06T05:25:57;92097.66;;;20.88;36.06
17521;BME280;8878;-33.370;-70.552;2023-04-06T05:28:29;92090.41;;;20.89;36.59
17521;BME280;8878;-33.370;-70.552;2023-04-06T05:30:58;92084.28;;;21.00;36.59
17521;BME280;8878;-33.370;-70.552;2023-04-06T05:33:28;92089.13;;;21.07;36.43
17521;BME280;8878;-33.370;-70.552;2023-04-06T05:35:58;92076.00;;;20.93;36.68
17521;BME280;8878;-33.370;-70.552;2023-04-06T05:38:28;92060.41;;;21.07;36.47
17521;BME280;8878;-33.370;-70.552;2023-04-06T05:40:58;92061.91;;;20.96;37.31
17521;BME280;8878;-33.370;-70.552;2023-04-06T05:43:29;92064.34;;;20.89;36.90
17521;BME280;8878;-33.370;-70.552;2023-04-06T05:45:59;92066.06;;;20.94;36.46
17521;BME280;8878;-33.370;-70.552;2023-04-06T05:48:28;92065.31;;;21.05;36.43
17521;BME280;8878;-33.370;-70.552;2023-04-06T05:50:58;92064.69;;;21.21;36.25
17521;BME280;8878;-33.370;-70.552;2023-04-06T05:53:28;92061.13;;;21.17;36.17
17521;BME280;8878;-33.370;-70.552;2023-04-06T05:56:00;92056.84;;;21.16;35.91
17521;BME280;8878;-33.370;-70.552;2023-04-06T05:58:31;92048.56;;;21.08;36.49
17521;BME280;8878;-33.370;-70.552;2023-04-06T06:01:01;92060.50;;;21.11;37.22
17521;BME280;8878;-33.370;-70.552;2023-04-06T06:03:31;92059.41;;;21.12;36.62
17521;BME280;8878;-33.370;-70.552;2023-04-06T06:06:01;92061.50;;;20.94;36.82
17521;BME280;8878;-33.370;-70.552;2023-04-06T06:08:31;92054.56;;;20.93;36.18
17521;BME280;8878;-33.370;-70.552;2023-04-06T06:11:02;92038.94;;;21.07;36.64
17521;BME280;8878;-33.370;-70.552;2023-04-06T06:13:33;92042.59;;;21.24;36.89
17521;BME280;8878;-33.370;-70.552;2023-04-06T06:16:03;92038.19;;;21.19;36.49
17521;BME280;8878;-33.370;-70.552;2023-04-06T06:18:33;92031.47;;;21.13;37.29
17521;BME280;8878;-33.370;-70.552;2023-04-06T06:21:04;92040.19;;;21.10;38.11
17521;BME280;8878;-33.370;-70.552;2023-04-06T06:23:33;92025.06;;;21.05;37.95
17521;BME280;8878;-33.370;-70.552;2023-04-06T06:26:02;92024.63;;;21.03;38.51
17521;BME280;8878;-33.370;-70.552;2023-04-06T06:28:34;92032.41;;;20.96;37.44
17521;BME280;8878;-33.370;-70.552;2023-04-06T06:31:03;92033.16;;;21.18;36.73
17521;BME280;8878;-33.370;-70.552;2023-04-06T06:33:34;92044.59;;;20.94;36.04
17521;BME280;8878;-33.370;-70.552;2023-04-06T06:36:03;92046.66;;;20.76;35.60
17521;BME280;8878;-33.370;-70.552;2023-04-06T06:38:34;92043.75;;;21.02;34.79
17521;BME280;8878;-33.370;-70.552;2023-04-06T06:41:03;92038.38;;;20.69;35.13
17521;BME280;8878;-33.370;-70.552;2023-04-06T06:43:36;92035.00;;;20.60;35.16
17521;BME280;8878;-33.370;-70.552;2023-04-06T06:46:05;92041.84;;;21.02;34.48
17521;BME280;8878;-33.370;-70.552;2023-04-06T06:48:35;92048.84;;;20.62;34.50
17521;BME280;8878;-33.370;-70.552;2023-04-06T06:51:04;92048.81;;;20.50;34.29
17521;BME280;8878;-33.370;-70.552;2023-04-06T06:53:34;92039.94;;;20.37;34.54
17521;BME280;8878;-33.370;-70.552;2023-04-06T06:56:04;92046.59;;;20.52;34.10
17521;BME280;8878;-33.370;-70.552;2023-04-06T06:58:35;92047.22;;;20.28;34.52
17521;BME280;8878;-33.370;-70.552;2023-04-06T07:01:05;92055.69;;;19.88;35.54
17521;BME280;8878;-33.370;-70.552;2023-04-06T07:03:34;92062.50;;;19.77;35.90
17521;BME280;8878;-33.370;-70.552;2023-04-06T07:06:05;92072.91;;;19.79;36.20
17521;BME280;8878;-33.370;-70.552;2023-04-06T07:08:35;92062.50;;;19.77;36.37
17521;BME280;8878;-33.370;-70.552;2023-04-06T07:11:04;92057.06;;;19.94;36.20
17521;BME280;8878;-33.370;-70.552;2023-04-06T07:13:37;92064.53;;;20.30;36.15
17521;BME280;8878;-33.370;-70.552;2023-04-06T07:16:07;92052.88;;;20.35;35.24
17521;BME280;8878;-33.370;-70.552;2023-04-06T07:18:36;92056.25;;;20.23;36.24
17521;BME280;8878;-33.370;-70.552;2023-04-06T07:21:06;92052.59;;;19.78;36.34
17521;BME280;8878;-33.370;-70.552;2023-04-06T07:23:35;92052.94;;;19.97;35.94
17521;BME280;8878;-33.370;-70.552;2023-04-06T07:26:05;92053.81;;;20.30;35.50
17521;BME280;8878;-33.370;-70.552;2023-04-06T07:28:36;92060.31;;;20.50;34.94
17521;BME280;8878;-33.370;-70.552;2023-04-06T07:31:06;92058.88;;;20.53;35.10
17521;BME280;8878;-33.370;-70.552;2023-04-06T07:33:35;92060.00;;;20.52;35.93
17521;BME280;8878;-33.370;-70.552;2023-04-06T07:36:05;92045.88;;;20.43;36.84
17521;BME280;8878;-33.370;-70.552;2023-04-06T07:38:35;92052.22;;;20.38;38.07
17521;BME280;8878;-33.370;-70.552;2023-04-06T07:41:06;92058.25;;;20.26;37.71
17521;BME280;8878;-33.370;-70.552;2023-04-06T07:43:38;92051.41;;;20.17;38.06
17521;BME280;8878;-33.370;-70.552;2023-04-06T07:46:07;92053.41;;;20.20;39.18
17521;BME280;8878;-33.370;-70.552;2023-04-06T07:48:37;92063.56;;;20.14;39.82
17521;BME280;8878;-33.370;-70.552;2023-04-06T07:51:07;92062.19;;;20.08;39.34
17521;BME280;8878;-33.370;-70.552;2023-04-06T07:53:41;92055.88;;;20.04;39.10
17521;BME280;8878;-33.370;-70.552;2023-04-06T07:56:10;92060.53;;;19.95;39.26
17521;BME280;8878;-33.370;-70.552;2023-04-06T07:58:44;92061.63;;;19.94;39.13
17521;BME280;8878;-33.370;-70.552;2023-04-06T08:01:13;92062.00;;;19.84;39.30
17521;BME280;8878;-33.370;-70.552;2023-04-06T08:03:43;92060.63;;;19.78;40.10
17521;BME280;8878;-33.370;-70.552;2023-04-06T08:06:13;92052.31;;;19.71;40.65
17521;BME280;8878;-33.370;-70.552;2023-04-06T08:08:44;92059.75;;;19.65;40.47
17521;BME280;8878;-33.370;-70.552;2023-04-06T08:11:14;92048.38;;;19.68;40.26
17521;BME280;8878;-33.370;-70.552;2023-04-06T08:13:45;92043.31;;;19.75;39.71
17521;BME280;8878;-33.370;-70.552;2023-04-06T08:16:15;92041.09;;;19.77;39.47
17521;BME280;8878;-33.370;-70.552;2023-04-06T08:18:44;92043.63;;;19.44;39.30
17521;BME280;8878;-33.370;-70.552;2023-04-06T08:21:15;92042.09;;;19.26;39.27
17521;BME280;8878;-33.370;-70.552;2023-04-06T08:23:44;92038.31;;;19.36;38.68
17521;BME280;8878;-33.370;-70.552;2023-04-06T08:26:14;92033.84;;;19.48;38.07
17521;BME280;8878;-33.370;-70.552;2023-04-06T08:28:45;92035.53;;;19.62;37.37
17521;BME280;8878;-33.370;-70.552;2023-04-06T08:31:15;92037.41;;;19.61;37.17
17521;BME280;8878;-33.370;-70.552;2023-04-06T08:33:44;92029.50;;;19.73;36.80
17521;BME280;8878;-33.370;-70.552;2023-04-06T08:36:15;92040.88;;;19.62;37.14
17521;BME280;8878;-33.370;-70.552;2023-04-06T08:38:50;92042.81;;;19.82;36.78
17521;BME280;8878;-33.370;-70.552;2023-04-06T08:41:20;92043.38;;;19.96;36.49
17521;BME280;8878;-33.370;-70.552;2023-04-06T08:43:58;92047.41;;;20.02;36.41
17521;BME280;8878;-33.370;-70.552;2023-04-06T08:46:29;92048.91;;;20.12;36.21
17521;BME280;8878;-33.370;-70.552;2023-04-06T08:49:01;92056.66;;;20.05;36.54
17521;BME280;8878;-33.370;-70.552;2023-04-06T08:51:34;92056.81;;;20.08;36.40
17521;BME280;8878;-33.370;-70.552;2023-04-06T08:54:04;92053.22;;;20.04;36.69
17521;BME280;8878;-33.370;-70.552;2023-04-06T08:56:36;92055.78;;;20.01;36.87
17521;BME280;8878;-33.370;-70.552;2023-04-06T08:59:10;92056.91;;;19.91;37.53
17521;BME280;8878;-33.370;-70.552;2023-04-06T09:01:40;92056.66;;;19.84;37.76
17521;BME280;8878;-33.370;-70.552;2023-04-06T09:04:11;92053.03;;;19.88;38.28
17521;BME280;8878;-33.370;-70.552;2023-04-06T09:06:42;92057.38;;;19.93;38.02
17521;BME280;8878;-33.370;-70.552;2023-04-06T09:09:12;92063.69;;;19.68;38.94
17521;BME280;8878;-33.370;-70.552;2023-04-06T09:11:47;92057.13;;;19.57;38.65
17521;BME280;8878;-33.370;-70.552;2023-04-06T09:14:34;92068.84;;;19.73;38.99
17521;BME280;8878;-33.370;-70.552;2023-04-06T09:17:05;92068.94;;;19.85;38.59
17521;BME280;8878;-33.370;-70.552;2023-04-06T09:19:44;92068.03;;;19.81;38.67
17521;BME280;8878;-33.370;-70.552;2023-04-06T09:22:14;92064.56;;;19.51;38.80
17521;BME280;8878;-33.370;-70.552;2023-04-06T09:24:45;92072.38;;;19.56;38.88
17521;BME280;8878;-33.370;-70.552;2023-04-06T09:27:15;92068.75;;;19.61;39.20
17521;BME280;8878;-33.370;-70.552;2023-04-06T09:29:46;92072.94;;;19.70;39.41
17521;BME280;8878;-33.370;-70.552;2023-04-06T09:32:17;92083.19;;;19.68;39.17
17521;BME280;8878;-33.370;-70.552;2023-04-06T09:34:47;92093.28;;;19.63;38.28
17521;BME280;8878;-33.370;-70.552;2023-04-06T09:37:17;92091.72;;;19.62;38.67
17521;BME280;8878;-33.370;-70.552;2023-04-06T09:39:47;92094.28;;;19.49;38.89
17521;BME280;8878;-33.370;-70.552;2023-04-06T09:42:29;92098.22;;;19.43;38.90
17521;BME280;8878;-33.370;-70.552;2023-04-06T09:45:00;92093.59;;;19.23;39.38
17521;BME280;8878;-33.370;-70.552;2023-04-06T09:47:30;92098.47;;;19.21;39.44
17521;BME280;8878;-33.370;-70.552;2023-04-06T09:50:00;92093.91;;;19.22;39.59
17521;BME280;8878;-33.370;-70.552;2023-04-06T09:52:32;92086.06;;;19.16;41.31
17521;BME280;8878;-33.370;-70.552;2023-04-06T09:55:03;92087.34;;;19.10;41.78
17521;BME280;8878;-33.370;-70.552;2023-04-06T09:57:40;92078.06;;;19.08;41.84
17521;BME280;8878;-33.370;-70.552;2023-04-06T10:00:18;92075.38;;;18.99;40.95
17521;BME280;8878;-33.370;-70.552;2023-04-06T10:02:56;92075.50;;;19.11;40.26
17521;BME280;8878;-33.370;-70.552;2023-04-06T10:05:33;92071.91;;;19.16;41.45
17521;BME280;8878;-33.370;-70.552;2023-04-06T10:08:08;92079.91;;;19.16;41.58
17521;BME280;8878;-33.370;-70.552;2023-04-06T10:10:38;92082.72;;;19.20;40.95
17521;BME280;8878;-33.370;-70.552;2023-04-06T10:13:11;92082.09;;;19.23;41.00
17521;BME280;8878;-33.370;-70.552;2023-04-06T10:15:42;92079.81;;;19.04;41.38
17521;BME280;8878;-33.370;-70.552;2023-04-06T10:18:12;92093.03;;;18.92;41.22
17521;BME280;8878;-33.370;-70.552;2023-04-06T10:20:47;92087.25;;;18.72;42.04
17521;BME280;8878;-33.370;-70.552;2023-04-06T10:23:22;92086.47;;;18.72;41.51
17521;BME280;8878;-33.370;-70.552;2023-04-06T10:25:54;92087.38;;;18.85;41.93
17521;BME280;8878;-33.370;-70.552;2023-04-06T10:28:25;92087.97;;;18.90;41.32
17521;BME280;8878;-33.370;-70.552;2023-04-06T10:31:01;92093.69;;;18.80;40.40
17521;BME280;8878;-33.370;-70.552;2023-04-06T10:33:31;92089.38;;;19.05;38.85
17521;BME280;8878;-33.370;-70.552;2023-04-06T10:36:11;92094.72;;;19.05;38.11
17521;BME280;8878;-33.370;-70.552;2023-04-06T10:38:40;92090.75;;;19.20;41.17
17521;BME280;8878;-33.370;-70.552;2023-04-06T10:41:11;92093.94;;;19.04;41.81
17521;BME280;8878;-33.370;-70.552;2023-04-06T10:43:41;92093.66;;;18.89;42.20
17521;BME280;8878;-33.370;-70.552;2023-04-06T10:46:13;92092.28;;;18.83;41.94
17521;BME280;8878;-33.370;-70.552;2023-04-06T10:48:43;92103.56;;;18.88;41.89
17521;BME280;8878;-33.370;-70.552;2023-04-06T10:51:15;92106.09;;;18.85;41.62
17521;BME280;8878;-33.370;-70.552;2023-04-06T10:53:46;92100.72;;;18.85;41.09
17521;BME280;8878;-33.370;-70.552;2023-04-06T10:56:17;92097.94;;;18.81;42.09
17521;BME280;8878;-33.370;-70.552;2023-04-06T10:58:47;92107.69;;;18.68;42.05
17521;BME280;8878;-33.370;-70.552;2023-04-06T11:01:20;92109.72;;;18.71;42.19
17521;BME280;8878;-33.370;-70.552;2023-04-06T11:03:50;92113.50;;;18.70;41.93
17521;BME280;8878;-33.370;-70.552;2023-04-06T11:06:21;92103.09;;;18.69;43.13
17521;BME280;8878;-33.370;-70.552;2023-04-06T11:08:51;92097.44;;;18.70;43.25
17521;BME280;8878;-33.370;-70.552;2023-04-06T11:11:22;92095.75;;;18.66;44.02
17521;BME280;8878;-33.370;-70.552;2023-04-06T11:13:54;92104.06;;;18.56;44.07
17521;BME280;8878;-33.370;-70.552;2023-04-06T11:16:26;92096.81;;;18.48;44.28
17521;BME280;8878;-33.370;-70.552;2023-04-06T11:18:56;92096.34;;;18.46;43.90
17521;BME280;8878;-33.370;-70.552;2023-04-06T11:21:36;92099.47;;;18.13;43.15
17521;BME280;8878;-33.370;-70.552;2023-04-06T11:24:08;92103.88;;;18.18;43.27
17521;BME280;8878;-33.370;-70.552;2023-04-06T11:26:42;92095.22;;;18.21;45.12
17521;BME280;8878;-33.370;-70.552;2023-04-06T11:29:13;92090.84;;;18.25;45.08
17521;BME280;8878;-33.370;-70.552;2023-04-06T11:31:46;92092.88;;;18.28;45.09
17521;BME280;8878;-33.370;-70.552;2023-04-06T11:34:17;92093.50;;;18.33;45.39
17521;BME280;8878;-33.370;-70.552;2023-04-06T11:36:48;92092.88;;;18.36;45.79
17521;BME280;8878;-33.370;-70.552;2023-04-06T11:39:20;92091.31;;;18.44;46.41
17521;BME280;8878;-33.370;-70.552;2023-04-06T11:41:52;92102.00;;;18.35;46.83
17521;BME280;8878;-33.370;-70.552;2023-04-06T11:44:32;92099.78;;;18.29;46.94
17521;BME280;8878;-33.370;-70.552;2023-04-06T11:47:04;92105.63;;;18.39;46.29
17521;BME280;8878;-33.370;-70.552;2023-04-06T11:49:37;92110.78;;;18.36;45.00
17521;BME280;8878;-33.370;-70.552;2023-04-06T11:52:15;92098.72;;;18.56;44.61
17521;BME280;8878;-33.370;-70.552;2023-04-06T11:54:46;92101.88;;;18.75;44.20
17521;BME280;8878;-33.370;-70.552;2023-04-06T11:57:16;92102.50;;;18.63;44.14
17521;BME280;8878;-33.370;-70.552;2023-04-06T11:59:46;92114.25;;;18.88;42.66
17521;BME280;8878;-33.370;-70.552;2023-04-06T12:02:19;92115.16;;;19.18;42.27
17521;BME280;8878;-33.370;-70.552;2023-04-06T12:04:50;92115.69;;;19.41;42.00
17521;BME280;8878;-33.370;-70.552;2023-04-06T12:07:19;92115.59;;;19.29;43.09
17521;BME280;8878;-33.370;-70.552;2023-04-06T12:09:49;92111.66;;;19.26;42.69
17521;BME280;8878;-33.370;-70.552;2023-04-06T12:12:19;92109.25;;;19.33;42.30
17521;BME280;8878;-33.370;-70.552;2023-04-06T12:14:49;92108.28;;;19.55;41.87
17521;BME280;8878;-33.370;-70.552;2023-04-06T12:17:21;92111.44;;;19.57;41.74
17521;BME280;8878;-33.370;-70.552;2023-04-06T12:19:50;92102.78;;;19.51;42.45
17521;BME280;8878;-33.370;-70.552;2023-04-06T12:22:20;92100.88;;;19.61;42.63
17521;BME280;8878;-33.370;-70.552;2023-04-06T12:24:49;92101.31;;;19.63;41.92
17521;BME280;8878;-33.370;-70.552;2023-04-06T12:27:19;92106.53;;;19.59;41.86
17521;BME280;8878;-33.370;-70.552;2023-04-06T12:29:48;92105.81;;;19.79;41.15
17521;BME280;8878;-33.370;-70.552;2023-04-06T12:32:20;92110.66;;;19.86;41.80
17521;BME280;8878;-33.370;-70.552;2023-04-06T12:34:51;92114.09;;;19.95;41.50
17521;BME280;8878;-33.370;-70.552;2023-04-06T12:37:21;92110.59;;;20.03;40.88
17521;BME280;8878;-33.370;-70.552;2023-04-06T12:39:51;92112.47;;;20.03;41.45
17521;BME280;8878;-33.370;-70.552;2023-04-06T12:42:21;92112.31;;;20.28;40.32
17521;BME280;8878;-33.370;-70.552;2023-04-06T12:44:51;92110.81;;;20.40;40.25
17521;BME280;8878;-33.370;-70.552;2023-04-06T12:47:23;92118.22;;;20.63;39.82
17521;BME280;8878;-33.370;-70.552;2023-04-06T12:49:55;92113.94;;;20.83;39.02
17521;BME280;8878;-33.370;-70.552;2023-04-06T12:52:24;92117.13;;;20.97;38.27
17521;BME280;8878;-33.370;-70.552;2023-04-06T12:54:54;92127.06;;;21.18;37.71
17521;BME280;8878;-33.370;-70.552;2023-04-06T12:57:23;92119.53;;;21.44;37.27
17521;BME280;8878;-33.370;-70.552;2023-04-06T12:59:53;92124.69;;;21.49;36.25
17521;BME280;8878;-33.370;-70.552;2023-04-06T13:02:25;92127.63;;;21.68;36.24
17521;BME280;8878;-33.370;-70.552;2023-04-06T13:04:54;92138.13;;;21.61;34.56